Flight Track Log - Related Links

Times and Time Zones

All times are in EST time to prevent confusion due to time zone crossing. See the N800K flight status page for this flight to view local times or setup timezone preferences in your user account.

Time Position Orientation Groundspeed Altitude Reporting Facility
EST Latitude Longitude Course Direction KTS MPH feet Rate Location/Type
Mon 02:22:55 PM 37.5333 -77.3333 254° West 111 128 1,000  Level Potomac TRACON
Mon 02:23:55 PM 37.5333 -77.3833 270° West 111 128 1,400 496 Climbing Potomac TRACON
Mon 02:24:56 PM 37.5167 -77.4167 238° Southwest 114 131 2,000 645 Climbing Potomac TRACON
Mon 02:25:56 PM 37.5000 -77.4500 238° Southwest 114 131 2,700 650 Climbing Potomac TRACON
Mon 02:26:56 PM 37.5000 -77.4833 270° West 110 127 3,300 600 Climbing Potomac TRACON
Mon 02:27:56 PM 37.4833 -77.5167 238° Southwest 121 139 3,900 694 Climbing Potomac TRACON
Mon 02:28:00 PM 37.3708 -77.5928 254° West  Level Estimated
Mon 02:28:57 PM 37.4833 -77.5667 270° West 124 143 4,700  Level Potomac TRACON
Mon 02:29:57 PM 37.4667 -77.6000 238° Southwest 117 135 5,200 431 Climbing Potomac TRACON
Mon 02:31:00 PM 37.4437 -77.6447 234° Southwest  Level Estimated
Mon 02:31:58 PM 37.4333 -77.6667 234° Southwest 128 147 6,000  Level Potomac TRACON
Mon 02:32:58 PM 37.4167 -77.7000 238° Southwest 151 174 6,000  Level Potomac TRACON
Mon 02:33:59 PM 37.3833 -77.7500 230° Southwest 147 169 6,000 50 Level Potomac TRACON
Mon 02:34:59 PM 37.3667 -77.7833 238° Southwest 145 167 6,100 52 Climbing Potomac TRACON
Mon 02:35:54 PM 37.3453 -77.8228 236° Southwest 152 175 6,100  Level Washington Center
Mon 02:36:52 PM 37.3217 -77.8639 234° Southwest 152 175 6,100  Level Washington Center
Mon 02:37:52 PM 37.2978 -77.9075 235° Southwest 152 175 6,100 -50 Level Washington Center
Mon 02:38:53 PM 37.2761 -77.9486 236° Southwest 152 175 6,000 -50 Descending Washington Center
Mon 02:39:53 PM 37.2525 -77.9897 234° Southwest 152 175 6,000  Level Washington Center
Mon 02:40:54 PM 37.2306 -78.0333 238° Southwest 147 169 6,000  Level Washington Center
Mon 02:41:52 PM 37.2069 -78.0744 234° Southwest 147 169 6,000  Level Washington Center
Mon 02:42:52 PM 37.1831 -78.1178 235° Southwest 147 169 6,000  Level Washington Center
Mon 02:43:52 PM 37.1614 -78.1614 238° Southwest 147 169 6,000  Level Washington Center
Mon 02:44:53 PM 37.1375 -78.2025 234° Southwest 147 169 6,000 50 Level Washington Center
Mon 02:45:53 PM 37.1133 -78.2483 237° Southwest 147 169 6,100 51 Climbing Washington Center
Mon 02:46:51 PM 37.0936 -78.2919 240° Southwest 147 169 6,100  Level Washington Center
Mon 02:47:52 PM 37.0697 -78.3328 234° Southwest 152 175 6,100  Level Washington Center
Mon 02:48:52 PM 37.0500 -78.3764 240° Southwest 152 175 6,100  Level Washington Center
Mon 02:49:54 PM 37.0303 -78.4147 237° Southwest 152 175 6,100  Level Washington Center
Mon 02:50:52 PM 37.0064 -78.4556 234° Southwest 152 175 6,100  Level Washington Center
Mon 02:51:53 PM 36.9844 -78.4989 238° Southwest 152 175 6,100  Level Washington Center
Mon 02:52:53 PM 36.9628 -78.5394 236° Southwest 152 175 6,100  Level Washington Center
Mon 02:53:54 PM 36.9386 -78.5856 237° Southwest 152 175 6,100  Level Washington Center
Mon 02:54:52 PM 36.9167 -78.6261 236° Southwest 152 175 6,100 -51 Level Washington Center
Mon 02:55:52 PM 36.8947 -78.6669 236° Southwest 146 168 6,000 -50 Descending Washington Center
Mon 02:56:53 PM 36.8728 -78.7100 238° Southwest 146 168 6,000  Level Washington Center
Mon 02:57:53 PM 36.8531 -78.7508 239° Southwest 146 168 6,000  Level Washington Center
Mon 02:58:51 PM 36.8311 -78.7889 234° Southwest 146 168 6,000 -50 Level Washington Center
Mon 02:59:52 PM 36.8092 -78.8319 238° Southwest 146 168 5,900 -50 Descending Washington Center
Mon 03:00:52 PM 36.7869 -78.8753 237° Southwest 146 168 5,900  Level Washington Center
Mon 03:01:53 PM 36.7653 -78.9133 235° Southwest 146 168 5,900 50 Level Washington Center
Mon 03:02:53 PM 36.7408 -78.9614 238° Southwest 146 168 6,000 50 Climbing Washington Center
Mon 03:03:53 PM 36.7167 -79.0044 235° Southwest 146 168 6,000  Level Washington Center
Mon 03:04:54 PM 36.6967 -79.0450 238° Southwest 146 168 6,000  Level Washington Center
Mon 03:05:54 PM 36.6747 -79.0881 238° Southwest 146 168 6,000  Level Washington Center
Mon 03:06:52 PM 36.6525 -79.1336 239° Southwest 155 178 6,000 -51 Level Washington Center
Mon 03:07:52 PM 36.6328 -79.1664 233° Southwest 150 173 5,900 -50 Descending Washington Center
Mon 03:08:52 PM 36.6064 -79.2092 232° Southwest 150 173 5,900  Level Washington Center
Mon 03:09:53 PM 36.5864 -79.2522 240° Southwest 150 173 5,900  Level Washington Center
Mon 03:10:54 PM 36.5600 -79.2950 232° Southwest 150 173 5,900 50 Level Washington Center
Mon 03:11:52 PM 36.5378 -79.3378 237° Southwest 150 173 6,000 51 Climbing Washington Center
Mon 03:12:52 PM 36.5156 -79.3781 236° Southwest 150 173 6,000  Level Washington Center
Mon 03:13:52 PM 36.4911 -79.4233 236° Southwest 150 173 6,000 -50 Level Washington Center
Mon 03:14:53 PM 36.4711 -79.4639 238° Southwest 150 173 5,900 -6 Descending Washington Center
Mon 03:16:00 PM 36.4514 -79.5132 244° Southwest  Level FlightAware
Mon 03:23:00 PM 36.3005 -79.8034 235° Southwest  Level FlightAware
Mon 03:24:00 PM 36.2775 -79.8434 235° Southwest  Level FlightAware
Mon 03:25:00 PM 36.2545 -79.8835 235° Southwest  Level FlightAware
Mon 03:26:00 PM 36.2315 -79.9235 235° Southwest  Level FlightAware
Mon 03:27:00 PM 36.2085 -79.9634 235° Southwest  Level FlightAware
Mon 03:28:00 PM 36.1855 -80.0034 234° Southwest  Level FlightAware
Mon 03:29:00 PM 36.1625 -80.0433 234° Southwest  Level FlightAware
Mon 03:30:00 PM 36.1394 -80.0832 234° Southwest  Level FlightAware
Mon 03:30:56 PM 36.1900 -80.1978 234° Southwest 152 175 5,900  Level Atlanta Center
Mon 03:31:00 PM 36.1164 -80.1231 234° Southwest  Level FlightAware
Mon 03:31:56 PM 36.1750 -80.2472 249° West 152 175 6,000  Level Atlanta Center
Mon 03:32:00 PM 36.0933 -80.1630 234° Southwest  Level FlightAware
Mon 03:32:56 PM 36.1575 -80.2944 245° Southwest 172 198 6,000  Level Atlanta Center
Mon 03:33:00 PM 36.0702 -80.2028 234° Southwest  Level FlightAware
Mon 03:33:56 PM 36.1467 -80.3439 255° West 155 178 6,000  Level Atlanta Center
Mon 03:34:00 PM 36.0471 -80.2426 234° Southwest  Level FlightAware
Mon 03:34:56 PM 36.1336 -80.3983 253° West 155 178 6,000  Level Atlanta Center
Mon 03:35:00 PM 36.0240 -80.2824 234° Southwest  Level FlightAware
Mon 03:35:56 PM 36.1181 -80.4403 245° Southwest 144 166 6,000  Level Atlanta Center
Mon 03:36:56 PM 36.1028 -80.4819 246° West 144 166 6,000  Level Atlanta Center
Mon 03:37:56 PM 36.0914 -80.5289 253° West 149 171 6,000  Level Atlanta Center
Mon 03:38:56 PM 36.0783 -80.5756 251° West 154 177 6,000  Level Atlanta Center
Mon 03:39:56 PM 36.0631 -80.6275 250° West 154 177 6,000  Level Atlanta Center
Mon 03:40:56 PM 36.0475 -80.6719 247° West 154 177 6,000  Level Atlanta Center
Mon 03:41:56 PM 36.0322 -80.7186 248° West 154 177 6,000  Level Atlanta Center
Mon 03:42:56 PM 36.0189 -80.7656 251° West 154 177 6,000 50 Level Atlanta Center
Mon 03:43:56 PM 36.0075 -80.8122 253° West 154 177 6,100 50 Climbing Atlanta Center
Mon 03:44:56 PM 35.9919 -80.8589 248° West 154 177 6,100  Level Atlanta Center
Mon 03:45:56 PM 35.9767 -80.9108 250° West 149 171 6,100  Level Atlanta Center
Mon 03:46:56 PM 35.9611 -80.9550 246° West 149 171 6,100  Level Atlanta Center
Mon 03:47:56 PM 35.9456 -81.0019 248° West 149 171 6,100  Level Atlanta Center
Mon 03:48:56 PM 35.9300 -81.0461 247° West 149 171 6,100  Level Atlanta Center
Mon 03:49:56 PM 35.9144 -81.0903 247° West 149 171 6,100  Level Atlanta Center
Mon 03:50:56 PM 35.9031 -81.1367 253° West 149 171 6,100  Level Atlanta Center
Mon 03:51:56 PM 35.8894 -81.1833 250° West 149 171 6,100  Level Atlanta Center
Mon 03:52:56 PM 35.8781 -81.2272 252° West 149 171 6,100  Level Atlanta Center
Mon 03:53:56 PM 35.8603 -81.2689 242° Southwest 149 171 6,100  Level Atlanta Center
Mon 03:54:56 PM 35.8403 -81.3131 241° Southwest 149 171 6,100 -50 Level Atlanta Center
Mon 03:55:56 PM 35.8203 -81.3547 239° Southwest 144 166 6,000  Descending Atlanta Center
Mon 03:56:56 PM 35.8044 -81.3964 245° Southwest 139 160 6,100  Climbing Atlanta Center
Mon 03:57:56 PM 35.7867 -81.4353 241° Southwest 139 160 6,000  Descending Atlanta Center
Mon 03:58:56 PM 35.7686 -81.4769 242° Southwest 139 160 6,100 50 Climbing Atlanta Center
Mon 03:59:56 PM 35.7508 -81.5208 243° Southwest 139 160 6,100  Level Atlanta Center
Mon 04:00:56 PM 35.7328 -81.5622 242° Southwest 139 160 6,100 -50 Level Atlanta Center
Mon 04:01:56 PM 35.7131 -81.6064 241° Southwest 139 160 6,000  Descending Atlanta Center
Mon 04:02:56 PM 35.6822 -81.6331 215° Southwest 139 160 6,100  Climbing Atlanta Center
Mon 04:03:56 PM 35.6514 -81.6644 220° Southwest 145 167 6,000 -100 Descending Atlanta Center
Mon 04:04:56 PM 35.6186 -81.6883 211° Southwest 145 167 5,900  Descending Atlanta Center
Mon 04:05:56 PM 35.5878 -81.7200 220° Southwest 145 167 6,000 50 Climbing Atlanta Center
Mon 04:06:56 PM 35.5531 -81.7492 214° Southwest 145 167 6,000  Level Atlanta Center
Mon 04:07:56 PM 35.5222 -81.7781 217° Southwest 145 167 6,000  Level Atlanta Center
Mon 04:08:56 PM 35.4894 -81.8069 216° Southwest 145 167 6,000 -50 Level Atlanta Center
Mon 04:09:56 PM 35.4586 -81.8358 217° Southwest 150 173 5,900 -100 Descending Atlanta Center
Mon 04:10:56 PM 35.4258 -81.8647 216° Southwest 144 166 5,800 -300 Descending Atlanta Center
Mon 04:11:56 PM 35.3886 -81.8964 215° Southwest 155 178 5,300 -364 Descending Atlanta Center
Mon 04:13:08 PM 35.3497 -81.9303 215° Southwest 165 190 5,000 -136 Descending Atlanta Center
Mon 04:14:08 PM 35.3042 -81.9622 210° Southwest 165 190 5,000 50 Level Atlanta Center
Mon 04:15:08 PM 35.2669 -81.9833 205° Southwest 159 183 5,100  Climbing Atlanta Center
Mon 04:16:09 PM 35.2297 -82.0022 203° Southwest 153 176 5,000  Descending Atlanta Center
Mon 04:17:08 PM 35.1925 -82.0208 202° Southwest 153 176 5,100  Climbing Atlanta Center
Mon 04:18:08 PM 35.1533 -82.0422 204° Southwest 153 176 5,000 -100 Descending Atlanta Center
Mon 04:20:00 PM 35.1107 -82.1167 180° South  Level FlightAware
Mon 04:27:00 PM 34.8873 -82.3029 216° Southwest  Level FlightAware
Mon 04:28:00 PM 34.8557 -82.3305 216° Southwest  Level FlightAware
Mon 04:29:00 PM 34.8479 -82.3500 216° Southwest  Level Estimated
Mon 04:30:00 PM 34.8479 -82.3500 216° Southwest  Level Estimated
Mon 04:31:00 PM 34.8479 -82.3500 216° Southwest  Level Estimated
Mon 04:32:00 PM 34.8479 -82.3500 216° Southwest  Level Estimated
Mon 04:33:00 PM 34.8479 -82.3500 216° Southwest  Level Estimated
Mon 04:34:00 PM 34.8479 -82.3500 216° Southwest  Level Estimated
Mon 04:35:00 PM 34.8479 -82.3500 216° Southwest  Level Estimated
Mon 04:36:00 PM 34.8479 -82.3500 216° Southwest  Level Estimated
Mon 04:37:00 PM 34.8479 -82.3500 216° Southwest  Level Estimated

Login

Don't have an account? Register now (free) for customized features, flight alerts, and more!